sensor_id;sensor_type;location;lat;lon;timestamp;pressure;altitude;pressure_sealevel;temperature;humidity
54329;BME280;40710;51.120;13.136;2022-12-18T00:00:23;100925.03;;;-3.72;53.83
54329;BME280;40710;51.120;13.136;2022-12-18T00:02:48;100931.59;;;-4.62;55.08
54329;BME280;40710;51.120;13.136;2022-12-18T00:05:12;100926.91;;;-4.22;54.12
54329;BME280;40710;51.120;13.136;2022-12-18T00:07:37;100934.69;;;-4.19;55.09
54329;BME280;40710;51.120;13.136;2022-12-18T00:10:02;100934.69;;;-4.19;53.80
54329;BME280;40710;51.120;13.136;2022-12-18T00:12:27;100921.41;;;-3.78;52.62
54329;BME280;40710;51.120;13.136;2022-12-18T00:14:52;100916.78;;;-3.90;52.28
54329;BME280;40710;51.120;13.136;2022-12-18T00:17:16;100920.34;;;-4.12;52.76
54329;BME280;40710;51.120;13.136;2022-12-18T00:19:41;100925.50;;;-3.85;52.35
54329;BME280;40710;51.120;13.136;2022-12-18T00:22:05;100932.06;;;-4.48;52.96
54329;BME280;40710;51.120;13.136;2022-12-18T00:24:30;100927.03;;;-4.18;51.48
54329;BME280;40710;51.120;13.136;2022-12-18T00:26:55;100926.22;;;-4.16;51.33
54329;BME280;40710;51.120;13.136;2022-12-18T00:29:19;100919.63;;;-4.35;51.68
54329;BME280;40710;51.120;13.136;2022-12-18T00:31:44;100917.69;;;-4.15;51.23
54329;BME280;40710;51.120;13.136;2022-12-18T00:34:10;100919.66;;;-3.80;49.97
54329;BME280;40710;51.120;13.136;2022-12-18T00:36:36;100921.50;;;-3.75;50.70
54329;BME280;40710;51.120;13.136;2022-12-18T00:39:02;100934.72;;;-4.70;52.41
54329;BME280;40710;51.120;13.136;2022-12-18T00:41:27;100939.75;;;-5.46;53.51
54329;BME280;40710;51.120;13.136;2022-12-18T00:44:13;100943.88;;;-5.03;53.70
54329;BME280;40710;51.120;13.136;2022-12-18T00:46:39;100950.03;;;-5.22;53.48
54329;BME280;40710;51.120;13.136;2022-12-18T00:49:04;100972.78;;;-5.54;55.62
54329;BME280;40710;51.120;13.136;2022-12-18T00:51:28;100976.13;;;-5.55;55.69
54329;BME280;40710;51.120;13.136;2022-12-18T00:53:53;100970.31;;;-4.80;54.78
54329;BME280;40710;51.120;13.136;2022-12-18T00:56:18;100973.47;;;-5.11;55.47
54329;BME280;40710;51.120;13.136;2022-12-18T00:58:42;100962.97;;;-4.18;53.79
54329;BME280;40710;51.120;13.136;2022-12-18T01:01:07;100969.09;;;-4.65;54.21
54329;BME280;40710;51.120;13.136;2022-12-18T01:03:33;100955.25;;;-4.45;52.60
54329;BME280;40710;51.120;13.136;2022-12-18T01:05:57;100953.59;;;-4.17;52.64
54329;BME280;40710;51.120;13.136;2022-12-18T01:08:22;100957.47;;;-4.03;52.13
54329;BME280;40710;51.120;13.136;2022-12-18T01:10:46;100960.19;;;-4.77;52.59
54329;BME280;40710;51.120;13.136;2022-12-18T01:13:11;100961.56;;;-4.35;51.72
54329;BME280;40710;51.120;13.136;2022-12-18T01:15:35;100971.53;;;-4.94;53.82
54329;BME280;40710;51.120;13.136;2022-12-18T01:18:00;100965.94;;;-4.32;52.48
54329;BME280;40710;51.120;13.136;2022-12-18T01:20:25;100971.06;;;-4.82;52.38
54329;BME280;40710;51.120;13.136;2022-12-18T01:22:49;100968.09;;;-5.41;53.69
54329;BME280;40710;51.120;13.136;2022-12-18T01:25:14;100968.56;;;-4.81;54.19
54329;BME280;40710;51.120;13.136;2022-12-18T01:27:38;100972.63;;;-5.11;54.01
54329;BME280;40710;51.120;13.136;2022-12-18T01:30:04;100960.97;;;-4.78;52.51
54329;BME280;40710;51.120;13.136;2022-12-18T01:32:30;100954.75;;;-4.34;52.59
54329;BME280;40710;51.120;13.136;2022-12-18T01:34:55;100959.50;;;-4.95;52.63
54329;BME280;40710;51.120;13.136;2022-12-18T01:37:19;100965.59;;;-4.16;51.53
54329;BME280;40710;51.120;13.136;2022-12-18T01:39:44;100959.03;;;-4.33;51.64
54329;BME280;40710;51.120;13.136;2022-12-18T01:42:13;100960.94;;;-4.28;51.96
54329;BME280;40710;51.120;13.136;2022-12-18T01:53:07;100961.47;;;-5.12;52.47
54329;BME280;40710;51.120;13.136;2022-12-18T01:55:44;100981.25;;;-4.85;53.96
54329;BME280;40710;51.120;13.136;2022-12-18T01:58:10;100983.81;;;-5.32;54.60
54329;BME280;40710;51.120;13.136;2022-12-18T02:00:34;100974.13;;;-4.68;53.52
54329;BME280;40710;51.120;13.136;2022-12-18T02:02:59;100970.88;;;-4.88;53.12
54329;BME280;40710;51.120;13.136;2022-12-18T02:05:33;100973.91;;;-4.49;52.83
54329;BME280;40710;51.120;13.136;2022-12-18T02:08:08;100965.94;;;-4.32;52.04
54329;BME280;40710;51.120;13.136;2022-12-18T02:10:46;100978.22;;;-4.73;52.56
54329;BME280;40710;51.120;13.136;2022-12-18T02:16:06;100977.63;;;-4.41;51.60
54329;BME280;40710;51.120;13.136;2022-12-18T02:18:41;100985.38;;;-5.13;53.96
54329;BME280;40710;51.120;13.136;2022-12-18T02:21:41;100978.50;;;-4.90;53.38
54329;BME280;40710;51.120;13.136;2022-12-18T02:24:38;100989.00;;;-4.84;51.71
54329;BME280;40710;51.120;13.136;2022-12-18T02:27:10;100997.28;;;-5.60;54.88
54329;BME280;40710;51.120;13.136;2022-12-18T02:29:40;100984.97;;;-5.00;54.10
54329;BME280;40710;51.120;13.136;2022-12-18T02:32:15;100999.78;;;-5.62;54.93
54329;BME280;40710;51.120;13.136;2022-12-18T02:34:43;100993.13;;;-5.11;53.77
54329;BME280;40710;51.120;13.136;2022-12-18T02:37:13;100988.75;;;-4.90;54.06
54329;BME280;40710;51.120;13.136;2022-12-18T02:39:43;100999.88;;;-5.14;54.88
54329;BME280;40710;51.120;13.136;2022-12-18T02:42:09;100996.88;;;-5.26;53.68
54329;BME280;40710;51.120;13.136;2022-12-18T02:44:45;101017.50;;;-6.91;57.19
54329;BME280;40710;51.120;13.136;2022-12-18T02:47:12;101035.88;;;-7.37;59.57
54329;BME280;40710;51.120;13.136;2022-12-18T02:56:05;101029.56;;;-7.26;59.06
54329;BME280;40710;51.120;13.136;2022-12-18T02:59:09;101032.09;;;-6.69;61.00
54329;BME280;40710;51.120;13.136;2022-12-18T03:01:49;101033.25;;;-7.75;58.69
54329;BME280;40710;51.120;13.136;2022-12-18T03:04:30;101022.31;;;-6.58;58.08
54329;BME280;40710;51.120;13.136;2022-12-18T03:07:18;101022.72;;;-7.27;58.34
54329;BME280;40710;51.120;13.136;2022-12-18T03:09:50;101023.44;;;-6.92;58.59
54329;BME280;40710;51.120;13.136;2022-12-18T03:12:34;101015.56;;;-6.37;56.59
54329;BME280;40710;51.120;13.136;2022-12-18T03:15:04;101022.53;;;-6.93;57.05
54329;BME280;40710;51.120;13.136;2022-12-18T03:17:34;101029.56;;;-6.89;57.85
54329;BME280;40710;51.120;13.136;2022-12-18T03:20:04;101020.78;;;-6.74;56.86
54329;BME280;40710;51.120;13.136;2022-12-18T03:22:33;101013.63;;;-6.42;56.18
54329;BME280;40710;51.120;13.136;2022-12-18T03:25:01;101016.47;;;-7.14;57.04
54329;BME280;40710;51.120;13.136;2022-12-18T03:27:30;101015.69;;;-6.94;56.66
54329;BME280;40710;51.120;13.136;2022-12-18T03:30:07;101013.06;;;-6.95;56.90
54329;BME280;40710;51.120;13.136;2022-12-18T03:32:57;101024.47;;;-7.44;57.83
54329;BME280;40710;51.120;13.136;2022-12-18T03:35:30;101015.34;;;-6.22;56.46
54329;BME280;40710;51.120;13.136;2022-12-18T03:37:56;101030.03;;;-7.15;57.74
54329;BME280;40710;51.120;13.136;2022-12-18T03:40:29;101040.16;;;-7.36;58.55
54329;BME280;40710;51.120;13.136;2022-12-18T03:43:08;101044.84;;;-7.46;58.84
54329;BME280;40710;51.120;13.136;2022-12-18T03:46:00;101042.47;;;-7.23;58.48
54329;BME280;40710;51.120;13.136;2022-12-18T03:48:44;101037.66;;;-7.17;57.73
54329;BME280;40710;51.120;13.136;2022-12-18T03:51:18;101033.50;;;-7.33;58.63
54329;BME280;40710;51.120;13.136;2022-12-18T03:53:58;101040.03;;;-7.39;58.34
54329;BME280;40710;51.120;13.136;2022-12-18T03:56:28;101047.34;;;-7.10;58.86
54329;BME280;40710;51.120;13.136;2022-12-18T03:58:57;101030.56;;;-6.04;55.84
54329;BME280;40710;51.120;13.136;2022-12-18T04:01:30;101042.16;;;-6.53;56.04
54329;BME280;40710;51.120;13.136;2022-12-18T04:03:59;101042.41;;;-6.68;56.95
54329;BME280;40710;51.120;13.136;2022-12-18T04:06:26;101051.09;;;-7.93;59.43
54329;BME280;40710;51.120;13.136;2022-12-18T04:08:52;101050.75;;;-7.29;58.63
54329;BME280;40710;51.120;13.136;2022-12-18T04:11:17;101039.41;;;-6.96;57.09
54329;BME280;40710;51.120;13.136;2022-12-18T04:13:42;101048.38;;;-7.06;56.34
54329;BME280;40710;51.120;13.136;2022-12-18T04:16:07;101033.63;;;-6.53;56.20
54329;BME280;40710;51.120;13.136;2022-12-18T04:18:33;101044.09;;;-7.25;57.01
54329;BME280;40710;51.120;13.136;2022-12-18T04:20:58;101059.56;;;-7.94;59.14
54329;BME280;40710;51.120;13.136;2022-12-18T04:23:23;101045.31;;;-7.17;57.81
54329;BME280;40710;51.120;13.136;2022-12-18T04:25:47;101042.09;;;-7.13;57.41
54329;BME280;40710;51.120;13.136;2022-12-18T04:28:12;101047.41;;;-7.82;58.04
54329;BME280;40710;51.120;13.136;2022-12-18T04:30:36;101038.97;;;-7.25;57.65
54329;BME280;40710;51.120;13.136;2022-12-18T04:33:01;101047.28;;;-7.29;57.89
54329;BME280;40710;51.120;13.136;2022-12-18T04:35:26;101038.44;;;-7.18;56.65
54329;BME280;40710;51.120;13.136;2022-12-18T04:37:50;101038.88;;;-6.89;55.76
54329;BME280;40710;51.120;13.136;2022-12-18T04:40:15;101057.81;;;-7.77;57.83
54329;BME280;40710;51.120;13.136;2022-12-18T04:42:40;101056.66;;;-7.48;58.32
54329;BME280;40710;51.120;13.136;2022-12-18T04:45:05;101051.31;;;-7.16;56.97
54329;BME280;40710;51.120;13.136;2022-12-18T04:47:30;101053.25;;;-7.48;56.90
54329;BME280;40710;51.120;13.136;2022-12-18T04:49:55;101060.53;;;-7.38;56.92
54329;BME280;40710;51.120;13.136;2022-12-18T04:52:20;101052.50;;;-7.08;57.23
54329;BME280;40710;51.120;13.136;2022-12-18T04:54:44;101049.81;;;-8.19;58.45
54329;BME280;40710;51.120;13.136;2022-12-18T04:57:09;101048.06;;;-7.68;58.56
54329;BME280;40710;51.120;13.136;2022-12-18T04:59:33;101053.22;;;-7.84;57.71
54329;BME280;40710;51.120;13.136;2022-12-18T05:01:58;101057.22;;;-7.89;58.26
54329;BME280;40710;51.120;13.136;2022-12-18T05:04:22;101058.13;;;-7.89;58.76
54329;BME280;40710;51.120;13.136;2022-12-18T05:06:47;101056.38;;;-7.90;58.79
54329;BME280;40710;51.120;13.136;2022-12-18T05:09:12;101047.47;;;-7.44;57.16
54329;BME280;40710;51.120;13.136;2022-12-18T05:11:36;101047.06;;;-7.16;56.70
54329;BME280;40710;51.120;13.136;2022-12-18T05:14:01;101041.81;;;-6.99;55.98
54329;BME280;40710;51.120;13.136;2022-12-18T05:16:25;101040.59;;;-7.27;55.50
54329;BME280;40710;51.120;13.136;2022-12-18T05:18:50;101041.94;;;-7.16;55.86
54329;BME280;40710;51.120;13.136;2022-12-18T05:21:14;101044.53;;;-6.77;55.61
54329;BME280;40710;51.120;13.136;2022-12-18T05:23:39;101045.72;;;-7.63;56.26
54329;BME280;40710;51.120;13.136;2022-12-18T05:26:05;101045.50;;;-7.12;56.25
54329;BME280;40710;51.120;13.136;2022-12-18T05:28:32;101039.91;;;-7.23;55.88
54329;BME280;40710;51.120;13.136;2022-12-18T05:31:00;101050.25;;;-7.02;55.93
54329;BME280;40710;51.120;13.136;2022-12-18T05:33:30;101054.16;;;-7.28;56.26
54329;BME280;40710;51.120;13.136;2022-12-18T05:35:57;101054.09;;;-7.84;56.86
54329;BME280;40710;51.120;13.136;2022-12-18T05:38:25;101049.28;;;-7.60;57.01
54329;BME280;40710;51.120;13.136;2022-12-18T05:40:51;101050.09;;;-7.96;57.89
54329;BME280;40710;51.120;13.136;2022-12-18T05:43:17;101041.28;;;-7.12;55.70
54329;BME280;40710;51.120;13.136;2022-12-18T05:45:42;101034.06;;;-7.20;55.08
54329;BME280;40710;51.120;13.136;2022-12-18T05:48:08;101047.44;;;-8.16;56.84
54329;BME280;40710;51.120;13.136;2022-12-18T05:50:41;101050.28;;;-8.10;58.21
54329;BME280;40710;51.120;13.136;2022-12-18T05:53:07;101048.78;;;-7.70;56.99
54329;BME280;40710;51.120;13.136;2022-12-18T05:55:36;101052.13;;;-7.89;57.28
54329;BME280;40710;51.120;13.136;2022-12-18T05:58:02;101058.50;;;-7.08;56.25
54329;BME280;40710;51.120;13.136;2022-12-18T06:00:27;101053.03;;;-7.71;56.21
54329;BME280;40710;51.120;13.136;2022-12-18T06:02:52;101064.69;;;-7.58;57.78
54329;BME280;40710;51.120;13.136;2022-12-18T06:05:16;101070.53;;;-7.43;58.08
54329;BME280;40710;51.120;13.136;2022-12-18T06:07:41;101057.44;;;-6.74;56.53
54329;BME280;40710;51.120;13.136;2022-12-18T06:10:06;101057.78;;;-6.86;55.84
54329;BME280;40710;51.120;13.136;2022-12-18T06:12:31;101066.22;;;-7.62;56.27
54329;BME280;40710;51.120;13.136;2022-12-18T06:14:57;101078.47;;;-7.36;55.43
54329;BME280;40710;51.120;13.136;2022-12-18T06:17:22;101077.59;;;-6.99;55.27
54329;BME280;40710;51.120;13.136;2022-12-18T06:19:46;101068.28;;;-6.99;54.68
54329;BME280;40710;51.120;13.136;2022-12-18T06:22:11;101077.22;;;-7.81;56.89
54329;BME280;40710;51.120;13.136;2022-12-18T06:24:36;101078.84;;;-7.47;56.61
54329;BME280;40710;51.120;13.136;2022-12-18T06:27:00;101086.97;;;-8.24;57.74
54329;BME280;40710;51.120;13.136;2022-12-18T06:29:25;101078.75;;;-7.66;56.88
54329;BME280;40710;51.120;13.136;2022-12-18T06:31:49;101080.31;;;-7.52;57.25
54329;BME280;40710;51.120;13.136;2022-12-18T06:34:14;101089.06;;;-7.29;56.16
54329;BME280;40710;51.120;13.136;2022-12-18T06:36:38;101101.28;;;-8.61;58.26
54329;BME280;40710;51.120;13.136;2022-12-18T06:39:03;101095.84;;;-7.65;57.85
54329;BME280;40710;51.120;13.136;2022-12-18T06:41:28;101101.53;;;-8.05;58.06
54329;BME280;40710;51.120;13.136;2022-12-18T06:43:52;101100.84;;;-7.13;57.39
54329;BME280;40710;51.120;13.136;2022-12-18T06:46:17;101101.00;;;-7.10;56.35
54329;BME280;40710;51.120;13.136;2022-12-18T06:48:42;101104.09;;;-7.17;56.49
54329;BME280;40710;51.120;13.136;2022-12-18T06:51:06;101111.22;;;-7.98;57.45
54329;BME280;40710;51.120;13.136;2022-12-18T06:53:32;101119.38;;;-7.89;58.46
54329;BME280;40710;51.120;13.136;2022-12-18T06:56:01;101120.06;;;-7.91;59.28
54329;BME280;40710;51.120;13.136;2022-12-18T06:58:27;101118.72;;;-7.49;58.52
54329;BME280;40710;51.120;13.136;2022-12-18T07:00:51;101116.19;;;-8.01;58.17
54329;BME280;40710;51.120;13.136;2022-12-18T07:03:16;101113.19;;;-7.58;58.70
54329;BME280;40710;51.120;13.136;2022-12-18T07:05:40;101112.59;;;-7.52;57.86
54329;BME280;40710;51.120;13.136;2022-12-18T07:08:05;101109.84;;;-7.21;57.12
54329;BME280;40710;51.120;13.136;2022-12-18T07:10:30;101112.88;;;-6.92;56.59
54329;BME280;40710;51.120;13.136;2022-12-18T07:12:55;101096.13;;;-7.59;56.93
54329;BME280;40710;51.120;13.136;2022-12-18T07:15:20;101101.13;;;-6.89;55.58
54329;BME280;40710;51.120;13.136;2022-12-18T07:17:44;101104.38;;;-7.47;55.49
54329;BME280;40710;51.120;13.136;2022-12-18T07:20:09;101109.81;;;-7.03;55.65
54329;BME280;40710;51.120;13.136;2022-12-18T07:22:34;101103.06;;;-7.56;55.49
54329;BME280;40710;51.120;13.136;2022-12-18T07:24:58;101099.91;;;-7.69;55.75
54329;BME280;40710;51.120;13.136;2022-12-18T07:27:23;101103.38;;;-7.32;56.10
54329;BME280;40710;51.120;13.136;2022-12-18T07:29:48;101108.91;;;-7.23;56.72
54329;BME280;40710;51.120;13.136;2022-12-18T07:32:12;101114.56;;;-7.11;56.41
54329;BME280;40710;51.120;13.136;2022-12-18T07:34:37;101113.69;;;-7.29;56.20
54329;BME280;40710;51.120;13.136;2022-12-18T07:37:01;101115.59;;;-7.07;55.83
54329;BME280;40710;51.120;13.136;2022-12-18T07:39:26;101117.19;;;-6.52;56.33
54329;BME280;40710;51.120;13.136;2022-12-18T07:41:51;101118.72;;;-6.38;54.93
54329;BME280;40710;51.120;13.136;2022-12-18T07:44:34;101113.22;;;-6.06;53.82
54329;BME280;40710;51.120;13.136;2022-12-18T07:46:59;101116.78;;;-6.22;53.75
54329;BME280;40710;51.120;13.136;2022-12-18T07:49:23;101119.09;;;-6.29;54.59
54329;BME280;40710;51.120;13.136;2022-12-18T07:51:48;101139.84;;;-7.17;57.00
54329;BME280;40710;51.120;13.136;2022-12-18T07:54:13;101139.59;;;-7.57;57.53
54329;BME280;40710;51.120;13.136;2022-12-18T07:56:38;101135.59;;;-6.41;55.91
54329;BME280;40710;51.120;13.136;2022-12-18T07:59:02;101132.69;;;-6.49;55.71
54329;BME280;40710;51.120;13.136;2022-12-18T08:01:27;101121.25;;;-6.57;55.79
54329;BME280;40710;51.120;13.136;2022-12-18T08:03:52;101124.53;;;-6.60;55.48
54329;BME280;40710;51.120;13.136;2022-12-18T08:06:16;101105.19;;;-5.93;54.35
54329;BME280;40710;51.120;13.136;2022-12-18T08:08:41;101108.28;;;-6.02;54.43
54329;BME280;40710;51.120;13.136;2022-12-18T08:11:06;101110.31;;;-5.72;54.00
54329;BME280;40710;51.120;13.136;2022-12-18T08:13:31;101099.13;;;-5.09;52.69
54329;BME280;40710;51.120;13.136;2022-12-18T08:16:05;101085.94;;;-4.49;51.31
54329;BME280;40710;51.120;13.136;2022-12-18T08:18:32;101092.22;;;-4.17;50.78
54329;BME280;40710;51.120;13.136;2022-12-18T08:20:57;101093.06;;;-3.92;50.82
54329;BME280;40710;51.120;13.136;2022-12-18T08:23:22;101086.97;;;-3.69;50.24
54329;BME280;40710;51.120;13.136;2022-12-18T08:25:46;101096.88;;;-3.27;50.29
54329;BME280;40710;51.120;13.136;2022-12-18T08:28:11;101094.06;;;-3.34;49.46
54329;BME280;40710;51.120;13.136;2022-12-18T08:30:36;101103.91;;;-2.92;48.83
54329;BME280;40710;51.120;13.136;2022-12-18T08:33:00;101114.06;;;-3.26;49.03
54329;BME280;40710;51.120;13.136;2022-12-18T08:35:25;101106.91;;;-2.78;49.30
54329;BME280;40710;51.120;13.136;2022-12-18T08:37:49;101089.97;;;-2.40;47.83
54329;BME280;40710;51.120;13.136;2022-12-18T08:40:14;101091.91;;;-1.99;48.07
54329;BME280;40710;51.120;13.136;2022-12-18T08:42:39;101113.75;;;-3.08;49.13
54329;BME280;40710;51.120;13.136;2022-12-18T08:45:41;101095.97;;;-1.74;47.98
54329;BME280;40710;51.120;13.136;2022-12-18T08:48:06;101080.91;;;-1.92;46.76
54329;BME280;40710;51.120;13.136;2022-12-18T08:50:31;101086.56;;;-2.05;47.29
54329;BME280;40710;51.120;13.136;2022-12-18T08:52:55;101089.59;;;-1.17;46.85
54329;BME280;40710;51.120;13.136;2022-12-18T08:55:20;101082.97;;;-0.63;45.95
54329;BME280;40710;51.120;13.136;2022-12-18T08:57:48;101096.63;;;-0.25;45.04
54329;BME280;40710;51.120;13.136;2022-12-18T09:00:14;101100.56;;;-0.45;45.62
54329;BME280;40710;51.120;13.136;2022-12-18T09:02:38;101098.41;;;-0.66;44.89
54329;BME280;40710;51.120;13.136;2022-12-18T09:05:03;101087.16;;;-0.26;44.97
54329;BME280;40710;51.120;13.136;2022-12-18T09:07:28;101086.28;;;0.23;43.58
54329;BME280;40710;51.120;13.136;2022-12-18T09:09:52;101084.84;;;0.40;42.88
54329;BME280;40710;51.120;13.136;2022-12-18T09:12:17;101083.63;;;0.18;42.84
54329;BME280;40710;51.120;13.136;2022-12-18T09:14:41;101074.84;;;0.62;42.78
54329;BME280;40710;51.120;13.136;2022-12-18T09:17:06;101092.72;;;0.48;43.37
54329;BME280;40710;51.120;13.136;2022-12-18T09:19:31;101084.28;;;1.22;41.83
54329;BME280;40710;51.120;13.136;2022-12-18T09:21:55;101087.06;;;1.36;40.79
54329;BME280;40710;51.120;13.136;2022-12-18T09:24:20;101089.00;;;1.56;41.37
54329;BME280;40710;51.120;13.136;2022-12-18T09:26:44;101089.78;;;1.47;41.06
54329;BME280;40710;51.120;13.136;2022-12-18T09:29:09;101079.34;;;2.25;40.24
54329;BME280;40710;51.120;13.136;2022-12-18T09:31:34;101079.59;;;2.57;40.04
54329;BME280;40710;51.120;13.136;2022-12-18T09:33:59;101078.84;;;2.72;39.35
54329;BME280;40710;51.120;13.136;2022-12-18T09:36:24;101082.38;;;2.83;39.93
54329;BME280;40710;51.120;13.136;2022-12-18T09:38:48;101067.88;;;3.29;39.18
54329;BME280;40710;51.120;13.136;2022-12-18T09:41:34;101058.56;;;4.02;38.22
54329;BME280;40710;51.120;13.136;2022-12-18T09:46:41;101051.59;;;4.47;37.69
54329;BME280;40710;51.120;13.136;2022-12-18T09:49:14;101043.78;;;4.50;37.28
54329;BME280;40710;51.120;13.136;2022-12-18T09:51:50;101038.56;;;4.68;37.55
54329;BME280;40710;51.120;13.136;2022-12-18T09:54:23;101033.28;;;4.85;36.72
54329;BME280;40710;51.120;13.136;2022-12-18T09:56:50;101024.59;;;4.94;37.04
54329;BME280;40710;51.120;13.136;2022-12-18T09:59:25;101027.91;;;5.35;36.64
54329;BME280;40710;51.120;13.136;2022-12-18T10:01:51;101024.59;;;5.03;37.28
54329;BME280;40710;51.120;13.136;2022-12-18T10:04:15;101025.38;;;5.18;37.40
54329;BME280;40710;51.120;13.136;2022-12-18T10:07:07;101010.41;;;5.60;36.45
54329;BME280;40710;51.120;13.136;2022-12-18T10:09:50;101001.03;;;5.22;36.40
54329;BME280;40710;51.120;13.136;2022-12-18T10:12:34;101005.94;;;5.74;36.42
54329;BME280;40710;51.120;13.136;2022-12-18T10:20:11;100965.06;;;6.71;34.82
54329;BME280;40710;51.120;13.136;2022-12-18T10:25:29;100950.66;;;7.12;34.11
54329;BME280;40710;51.120;13.136;2022-12-18T10:28:06;100952.13;;;7.31;33.55
54329;BME280;40710;51.120;13.136;2022-12-18T10:30:32;100955.81;;;7.15;33.77
54329;BME280;40710;51.120;13.136;2022-12-18T10:33:01;100954.94;;;7.16;34.01
54329;BME280;40710;51.120;13.136;2022-12-18T10:35:26;100955.06;;;7.67;33.55
54329;BME280;40710;51.120;13.136;2022-12-18T10:38:05;100956.16;;;7.52;33.36
54329;BME280;40710;51.120;13.136;2022-12-18T10:40:30;100949.00;;;7.64;33.89
54329;BME280;40710;51.120;13.136;2022-12-18T10:43:04;100964.91;;;7.51;34.48
54329;BME280;40710;51.120;13.136;2022-12-18T10:45:29;100960.28;;;7.67;34.22
54329;BME280;40710;51.120;13.136;2022-12-18T10:47:54;100963.56;;;7.23;34.87
54329;BME280;40710;51.120;13.136;2022-12-18T10:50:39;100951.75;;;8.10;34.55
54329;BME280;40710;51.120;13.136;2022-12-18T10:53:05;100941.28;;;8.57;33.71
54329;BME280;40710;51.120;13.136;2022-12-18T10:55:36;100944.63;;;7.66;35.19
54329;BME280;40710;51.120;13.136;2022-12-18T10:58:25;100945.94;;;7.35;35.16
54329;BME280;40710;51.120;13.136;2022-12-18T11:01:16;100932.56;;;8.57;34.48
54329;BME280;40710;51.120;13.136;2022-12-18T11:03:47;100938.25;;;8.32;36.21
54329;BME280;40710;51.120;13.136;2022-12-18T11:06:24;100926.00;;;8.81;34.09
54329;BME280;40710;51.120;13.136;2022-12-18T11:09:05;100921.47;;;8.87;33.40
54329;BME280;40710;51.120;13.136;2022-12-18T11:11:32;100916.19;;;9.30;32.29
54329;BME280;40710;51.120;13.136;2022-12-18T11:14:05;100921.28;;;8.97;32.89
54329;BME280;40710;51.120;13.136;2022-12-18T11:16:45;100924.59;;;8.64;33.20
54329;BME280;40710;51.120;13.136;2022-12-18T11:19:40;100904.84;;;9.65;32.31
54329;BME280;40710;51.120;13.136;2022-12-18T11:22:21;100910.41;;;9.15;32.33
54329;BME280;40710;51.120;13.136;2022-12-18T11:24:55;100906.13;;;9.09;32.29
54329;BME280;40710;51.120;13.136;2022-12-18T11:27:20;100904.47;;;8.65;32.95
54329;BME280;40710;51.120;13.136;2022-12-18T11:29:45;100898.09;;;9.55;31.81
54329;BME280;40710;51.120;13.136;2022-12-18T11:32:33;100898.34;;;9.06;31.81
54329;BME280;40710;51.120;13.136;2022-12-18T11:37:28;100912.84;;;8.82;33.03
54329;BME280;40710;51.120;13.136;2022-12-18T11:40:11;100918.84;;;8.89;33.35
54329;BME280;40710;51.120;13.136;2022-12-18T11:42:51;100920.81;;;8.76;32.88
54329;BME280;40710;51.120;13.136;2022-12-18T11:45:28;100907.06;;;9.46;32.17
54329;BME280;40710;51.120;13.136;2022-12-18T11:48:27;100926.47;;;8.58;34.49
54329;BME280;40710;51.120;13.136;2022-12-18T11:50:56;100924.41;;;9.14;32.75
54329;BME280;40710;51.120;13.136;2022-12-18T11:53:25;100941.91;;;8.23;34.96
54329;BME280;40710;51.120;13.136;2022-12-18T11:59:05;100927.56;;;9.28;32.78
54329;BME280;40710;51.120;13.136;2022-12-18T12:10:26;100932.47;;;9.80;32.76
54329;BME280;40710;51.120;13.136;2022-12-18T12:13:15;100944.34;;;9.96;32.71
54329;BME280;40710;51.120;13.136;2022-12-18T12:18:37;100959.03;;;8.41;34.10
54329;BME280;40710;51.120;13.136;2022-12-18T12:21:23;100948.19;;;9.06;33.60
54329;BME280;40710;51.120;13.136;2022-12-18T12:24:27;100935.28;;;8.96;33.19
54329;BME280;40710;51.120;13.136;2022-12-18T12:29:42;100946.25;;;8.24;34.70
54329;BME280;40710;51.120;13.136;2022-12-18T12:32:38;100957.00;;;8.59;34.18
54329;BME280;40710;51.120;13.136;2022-12-18T12:37:54;100941.66;;;8.37;34.63
54329;BME280;40710;51.120;13.136;2022-12-18T12:40:27;100942.03;;;8.17;35.03
54329;BME280;40710;51.120;13.136;2022-12-18T12:43:05;100936.44;;;8.82;34.20
54329;BME280;40710;51.120;13.136;2022-12-18T12:45:45;100923.06;;;9.35;33.93
54329;BME280;40710;51.120;13.136;2022-12-18T12:48:38;100925.59;;;8.99;33.65
54329;BME280;40710;51.120;13.136;2022-12-18T12:51:26;100920.25;;;9.04;33.53
54329;BME280;40710;51.120;13.136;2022-12-18T12:53:56;100923.84;;;8.08;34.48
54329;BME280;40710;51.120;13.136;2022-12-18T12:56:25;100923.81;;;7.58;35.40
54329;BME280;40710;51.120;13.136;2022-12-18T12:59:10;100921.44;;;7.43;36.03
54329;BME280;40710;51.120;13.136;2022-12-18T13:01:52;100920.84;;;6.54;36.99
54329;BME280;40710;51.120;13.136;2022-12-18T13:04:57;100930.94;;;6.86;36.67
54329;BME280;40710;51.120;13.136;2022-12-18T13:12:56;100937.28;;;6.63;37.13
54329;BME280;40710;51.120;13.136;2022-12-18T13:15:33;100937.00;;;6.09;37.13
54329;BME280;40710;51.120;13.136;2022-12-18T13:20:37;100937.31;;;6.62;36.19
54329;BME280;40710;51.120;13.136;2022-12-18T13:28:48;100920.97;;;7.13;34.67
54329;BME280;40710;51.120;13.136;2022-12-18T13:31:07;100915.97;;;7.56;33.55
54329;BME280;40710;51.120;13.136;2022-12-18T13:33:41;100910.63;;;7.64;33.04
54329;BME280;40710;51.120;13.136;2022-12-18T13:38:46;100915.31;;;7.44;32.99
54329;BME280;40710;51.120;13.136;2022-12-18T13:43:44;100918.88;;;6.73;34.28
54329;BME280;40710;51.120;13.136;2022-12-18T13:46:28;100913.25;;;7.07;34.02
54329;BME280;40710;51.120;13.136;2022-12-18T13:49:01;100899.44;;;8.06;32.26
54329;BME280;40710;51.120;13.136;2022-12-18T13:51:28;100906.25;;;7.09;33.84
54329;BME280;40710;51.120;13.136;2022-12-18T13:56:43;100908.91;;;7.03;33.94
54329;BME280;40710;51.120;13.136;2022-12-18T14:01:54;100905.06;;;7.30;33.68
54329;BME280;40710;51.120;13.136;2022-12-18T14:06:47;100914.50;;;6.76;34.72
54329;BME280;40710;51.120;13.136;2022-12-18T14:09:15;100914.44;;;6.02;35.56
54329;BME280;40710;51.120;13.136;2022-12-18T14:11:47;100911.22;;;5.69;36.10